Time;durP1;ratioP1;P1;durP2;ratioP2;P2;SDS_P1;SDS_P2;PMS_P1;PMS_P2;Temp;Humidity;BMP_temperature;BMP_pressure;BME280_temperature;BME280_humidity;BME280_pressure;Samples;Min_cycle;Max_cycle;Signal;HPM_P1;HPM_P2
2022/03/18 00:02:23;;;;;;;47.25;28.90;;;8.60;99.90;;;;;;5094254;28;20209;-67
2022/03/18 00:04:51;;;;;;;45.53;28.02;;;8.50;99.90;;;;;;5094270;28;20248;-67
2022/03/18 00:07:20;;;;;;;43.28;28.20;;;8.50;99.90;;;;;;5094493;28;20653;-67
2022/03/18 00:09:48;;;;;;;40.95;28.52;;;8.50;99.90;;;;;;5094050;28;20205;-67
2022/03/18 00:12:15;;;;;;;44.42;27.67;;;8.50;99.90;;;;;;5093914;28;20198;-68
2022/03/18 00:14:43;;;;;;;45.35;27.40;;;8.40;99.90;;;;;;5094323;28;20208;-68
2022/03/18 00:17:12;;;;;;;40.88;26.92;;;8.40;99.90;;;;;;5094357;28;20222;-69
2022/03/18 00:19:40;;;;;;;39.63;27.50;;;8.40;99.90;;;;;;5094149;28;20320;-68
2022/03/18 00:22:08;;;;;;;40.80;26.75;;;8.40;99.90;;;;;;5093555;28;20699;-67
2022/03/18 00:24:35;;;;;;;37.38;25.30;;;8.50;99.90;;;;;;5093855;28;20212;-67
2022/03/18 00:27:03;;;;;;;37.30;25.20;;;8.40;99.90;;;;;;5093849;28;20229;-67
2022/03/18 00:29:31;;;;;;;38.45;25.92;;;8.50;99.90;;;;;;5093787;28;20221;-68
2022/03/18 00:32:00;;;;;;;36.10;24.60;;;8.50;99.90;;;;;;5093733;28;20202;-68
2022/03/18 00:34:27;;;;;;;36.25;24.30;;;8.50;99.90;;;;;;5093804;28;20233;-68
2022/03/18 00:36:54;;;;;;;37.90;24.67;;;8.50;99.90;;;;;;5094063;28;20309;-67
2022/03/18 00:39:21;;;;;;;34.83;23.27;;;8.60;99.90;;;;;;5093482;28;20213;-66
2022/03/18 00:41:48;;;;;;;34.35;23.58;;;8.60;99.90;;;;;;5093416;28;20205;-67
2022/03/18 00:44:15;;;;;;;37.15;25.08;;;8.50;99.90;;;;;;5093541;28;20198;-67
2022/03/18 00:46:42;;;;;;;39.80;24.23;;;8.40;99.90;;;;;;5094021;28;20236;-67
2022/03/18 00:52:05;;;;;;;34.40;23.73;;;8.30;99.90;;;;;;5093027;28;20198;-67
2022/03/18 00:54:33;;;;;;;40.22;23.67;;;8.30;99.90;;;;;;5093403;28;20288;-67
2022/03/18 00:57:00;;;;;;;39.22;24.73;;;8.30;99.90;;;;;;5093559;28;20591;-67
2022/03/18 00:59:27;;;;;;;36.33;23.75;;;8.30;99.90;;;;;;5093164;28;20319;-67
2022/03/18 01:01:54;;;;;;;33.78;22.40;;;8.40;99.90;;;;;;5092914;28;20202;-66
2022/03/18 01:04:23;;;;;;;32.13;22.25;;;8.50;99.90;;;;;;5092990;28;20293;-66
2022/03/18 01:06:52;;;;;;;31.67;23.42;;;8.50;99.90;;;;;;5092775;28;20229;-66
2022/03/18 01:09:20;;;;;;;38.30;24.23;;;8.40;99.90;;;;;;5093281;28;20210;-66
2022/03/18 01:11:46;;;;;;;31.70;20.92;;;8.40;99.90;;;;;;5092866;28;20206;-66
2022/03/18 01:14:13;;;;;;;31.27;21.33;;;8.40;99.90;;;;;;5092835;28;20225;-67
2022/03/18 01:16:40;;;;;;;30.65;22.40;;;8.50;99.90;;;;;;5093222;28;20221;-66
2022/03/18 01:19:08;;;;;;;37.03;22.05;;;8.60;99.90;;;;;;5093288;28;20288;-67
2022/03/18 01:21:37;;;;;;;31.90;20.52;;;8.50;99.90;;;;;;5092768;28;20222;-66
2022/03/18 01:24:04;;;;;;;30.23;20.60;;;8.50;99.90;;;;;;5092803;28;20291;-67
2022/03/18 01:26:31;;;;;;;31.60;20.92;;;8.40;99.90;;;;;;5092983;28;20590;-67
2022/03/18 01:28:58;;;;;;;32.03;21.15;;;8.50;99.90;;;;;;5093117;28;20675;-67
2022/03/18 01:31:26;;;;;;;32.35;22.38;;;8.50;99.90;;;;;;5092449;28;20743;-67
2022/03/18 01:33:53;;;;;;;32.45;21.98;;;8.50;99.90;;;;;;5092726;28;20206;-67
2022/03/18 01:36:20;;;;;;;29.92;20.75;;;8.40;99.90;;;;;;5092718;28;20313;-67
2022/03/18 01:38:48;;;;;;;31.15;20.60;;;8.40;99.90;;;;;;5093023;28;20210;-67
2022/03/18 01:41:15;;;;;;;32.05;21.70;;;8.30;99.90;;;;;;5092157;28;20691;-67
2022/03/18 01:43:44;;;;;;;28.17;19.60;;;8.40;99.90;;;;;;5092715;28;20590;-67
2022/03/18 01:46:12;;;;;;;28.13;19.05;;;8.50;99.90;;;;;;5093026;28;20315;-67
2022/03/18 01:48:39;;;;;;;28.05;20.38;;;8.50;99.90;;;;;;5094138;28;20279;-67
2022/03/18 01:51:07;;;;;;;26.77;19.50;;;8.50;99.90;;;;;;5093423;28;20194;-67
2022/03/18 01:53:35;;;;;;;28.77;19.90;;;8.50;99.90;;;;;;5093510;28;20252;-66
2022/03/18 01:56:04;;;;;;;26.90;19.40;;;8.50;99.90;;;;;;5093853;28;20656;-67
2022/03/18 01:58:31;;;;;;;27.77;19.27;;;8.50;99.90;;;;;;5093991;28;20648;-67
2022/03/18 02:00:58;;;;;;;23.05;17.02;;;8.50;99.90;;;;;;5093400;28;20236;-67
2022/03/18 02:03:25;;;;;;;29.58;20.30;;;8.50;99.90;;;;;;5093284;28;20618;-67
2022/03/18 02:05:52;;;;;;;26.40;18.45;;;8.50;99.90;;;;;;5093230;28;20686;-67
2022/03/18 02:08:20;;;;;;;28.40;18.70;;;8.50;99.90;;;;;;5094090;28;20544;-67
2022/03/18 02:10:47;;;;;;;26.83;19.20;;;8.50;99.90;;;;;;5093910;28;20194;-67
2022/03/18 02:13:15;;;;;;;25.85;17.83;;;8.40;99.90;;;;;;5093734;28;20201;-66
2022/03/18 02:15:42;;;;;;;27.23;18.98;;;8.40;99.90;;;;;;5093557;28;20202;-67
2022/03/18 02:18:09;;;;;;;28.63;18.63;;;8.40;99.90;;;;;;5093424;28;20202;-67
2022/03/18 02:20:36;;;;;;;29.63;19.90;;;8.30;99.90;;;;;;5096647;28;20218;-67
2022/03/18 02:23:04;;;;;;;29.02;19.88;;;8.40;99.90;;;;;;5097616;28;20224;-66
2022/03/18 02:25:32;;;;;;;29.55;19.23;;;8.30;99.90;;;;;;5097262;28;20202;-67
2022/03/18 02:28:00;;;;;;;24.33;17.90;;;8.10;99.90;;;;;;5096802;28;20695;-67
2022/03/18 02:30:30;;;;;;;29.67;19.67;;;8.20;99.90;;;;;;5097201;28;20202;-67
2022/03/18 02:32:57;;;;;;;28.58;18.48;;;8.20;99.90;;;;;;5097693;28;20529;-66
2022/03/18 02:35:26;;;;;;;26.17;18.08;;;8.30;99.90;;;;;;5097097;28;20229;-67
2022/03/18 02:37:53;;;;;;;25.33;17.65;;;8.40;99.90;;;;;;5097031;28;20612;-67
2022/03/18 02:40:21;;;;;;;28.55;19.17;;;8.40;99.90;;;;;;5097132;28;20230;-67
2022/03/18 02:42:48;;;;;;;26.02;18.48;;;8.40;99.90;;;;;;5097044;28;20233;-67
2022/03/18 02:45:15;;;;;;;29.35;19.40;;;8.40;99.90;;;;;;5096812;28;20216;-67
2022/03/18 02:47:42;;;;;;;26.05;17.50;;;8.20;99.90;;;;;;5097248;28;20605;-66
2022/03/18 02:50:10;;;;;;;27.00;17.45;;;8.30;99.90;;;;;;5097159;28;20204;-67
2022/03/18 02:52:37;;;;;;;25.73;17.45;;;8.40;99.90;;;;;;5096707;28;20198;-67
2022/03/18 02:55:04;;;;;;;25.30;19.20;;;8.40;99.90;;;;;;5096652;28;20210;-67
2022/03/18 02:57:32;;;;;;;27.02;17.90;;;8.40;99.90;;;;;;5096955;28;20224;-67
2022/03/18 03:00:00;;;;;;;28.13;19.05;;;8.30;99.90;;;;;;5096319;28;20672;-67
2022/03/18 03:02:27;;;;;;;31.25;18.20;;;8.30;99.90;;;;;;5096428;28;20690;-67
2022/03/18 03:10:22;;;;;;;28.55;18.50;;;8.40;99.90;;;;;;5096560;28;20548;-67
2022/03/18 03:12:51;;;;;;;24.27;17.83;;;8.40;99.90;;;;;;5096104;28;20668;-67
2022/03/18 03:15:18;;;;;;;25.15;17.20;;;8.40;99.90;;;;;;5096579;28;20293;-66
2022/03/18 03:17:45;;;;;;;27.48;18.50;;;8.40;99.90;;;;;;5096057;28;20233;-67
2022/03/18 03:20:13;;;;;;;22.25;17.08;;;8.40;99.90;;;;;;5096308;28;20580;-67
2022/03/18 03:22:39;;;;;;;24.35;17.45;;;8.40;99.90;;;;;;5095910;28;20681;-67
2022/03/18 03:25:07;;;;;;;26.73;17.77;;;8.40;99.90;;;;;;5096277;28;20297;-67
2022/03/18 03:27:34;;;;;;;28.27;18.38;;;8.40;99.90;;;;;;5096519;28;20222;-67
2022/03/18 03:30:05;;;;;;;25.33;16.95;;;8.40;99.90;;;;;;5095919;28;20660;-66
2022/03/18 03:32:32;;;;;;;27.23;18.20;;;8.30;99.90;;;;;;5096075;28;20190;-67
2022/03/18 03:35:00;;;;;;;26.00;18.25;;;8.40;99.90;;;;;;5095970;28;20232;-66
2022/03/18 03:37:27;;;;;;;28.63;17.95;;;8.30;99.90;;;;;;5095897;28;20254;-67
2022/03/18 03:39:54;;;;;;;23.67;17.30;;;8.30;99.90;;;;;;5095527;28;20758;-67
2022/03/18 03:42:21;;;;;;;22.98;16.95;;;8.30;99.90;;;;;;5095467;28;20713;-67
2022/03/18 03:44:48;;;;;;;28.13;18.08;;;8.30;99.90;;;;;;5095430;28;20553;-67
2022/03/18 03:47:17;;;;;;;24.70;17.02;;;8.20;99.90;;;;;;5095389;28;20222;-67
2022/03/18 03:49:44;;;;;;;23.10;16.63;;;8.30;99.90;;;;;;5095702;28;20292;-66
2022/03/18 03:52:11;;;;;;;25.95;17.63;;;8.30;99.90;;;;;;5096480;28;20206;-67
2022/03/18 03:54:40;;;;;;;26.00;18.13;;;8.40;99.90;;;;;;5095381;28;20212;-67
2022/03/18 03:57:07;;;;;;;25.33;18.10;;;8.30;99.90;;;;;;5095413;28;20221;-67
2022/03/18 03:59:34;;;;;;;23.20;16.70;;;8.20;99.90;;;;;;5095558;28;20608;-67
2022/03/18 04:02:02;;;;;;;24.00;16.63;;;8.20;99.90;;;;;;5095508;28;20313;-67
2022/03/18 04:04:31;;;;;;;22.95;17.23;;;8.30;99.90;;;;;;5095440;28;20205;-67
2022/03/18 04:06:59;;;;;;;21.90;16.77;;;8.40;99.90;;;;;;5095151;28;20637;-67
2022/03/18 04:09:25;;;;;;;22.88;15.25;;;8.30;99.90;;;;;;5095642;28;20213;-67
2022/03/18 04:11:52;;;;;;;21.63;15.73;;;8.40;99.90;;;;;;5094936;28;20204;-67
2022/03/18 04:14:20;;;;;;;24.40;16.55;;;8.40;99.90;;;;;;5095092;28;20198;-67
2022/03/18 04:16:47;;;;;;;24.80;16.85;;;8.40;99.90;;;;;;5095039;28;20599;-66
2022/03/18 04:19:13;;;;;;;27.15;18.02;;;8.40;99.90;;;;;;5095197;28;20668;-67
2022/03/18 04:21:42;;;;;;;23.90;16.20;;;8.30;99.90;;;;;;5095201;28;20683;-67
2022/03/18 04:24:09;;;;;;;25.02;17.55;;;8.30;99.90;;;;;;5094919;28;20553;-67
2022/03/18 04:26:36;;;;;;;26.58;17.80;;;8.30;99.90;;;;;;5095589;28;20229;-67
2022/03/18 04:29:03;;;;;;;25.75;16.98;;;8.30;99.90;;;;;;5094590;28;20304;-67
2022/03/18 04:31:29;;;;;;;25.13;18.10;;;8.30;99.90;;;;;;5094875;28;20198;-67
2022/03/18 04:33:56;;;;;;;25.10;16.30;;;8.20;99.90;;;;;;5094433;28;20297;-66
2022/03/18 04:36:24;;;;;;;26.35;17.77;;;8.20;99.90;;;;;;5095225;28;20435;-67
2022/03/18 04:38:52;;;;;;;24.88;17.08;;;8.30;99.90;;;;;;5094796;28;20225;-67
2022/03/18 04:41:19;;;;;;;26.08;17.33;;;8.20;99.90;;;;;;5094381;28;20218;-67
2022/03/18 04:43:46;;;;;;;23.25;16.13;;;8.10;99.90;;;;;;5094536;28;20292;-67
2022/03/18 04:46:13;;;;;;;23.27;15.98;;;8.10;99.90;;;;;;5094565;28;20234;-67
2022/03/18 04:48:40;;;;;;;23.77;16.52;;;8.20;99.90;;;;;;5095105;28;20289;-67
2022/03/18 04:51:07;;;;;;;26.23;17.35;;;8.10;99.90;;;;;;5094895;28;20284;-67
2022/03/18 04:53:35;;;;;;;25.35;17.08;;;8.10;99.90;;;;;;5094561;28;20206;-66
2022/03/18 04:56:04;;;;;;;25.42;17.13;;;8.20;99.90;;;;;;5094390;28;20567;-67
2022/03/18 04:58:29;;;;;;;26.45;17.50;;;8.30;99.90;;;;;;5094683;28;20198;-66
2022/03/18 05:00:56;;;;;;;24.80;17.93;;;8.30;99.90;;;;;;5094251;28;20557;-67
2022/03/18 05:03:24;;;;;;;28.67;18.85;;;8.30;99.90;;;;;;5094376;28;20525;-67
2022/03/18 05:05:51;;;;;;;26.88;17.83;;;8.20;99.90;;;;;;5094230;28;20297;-67
2022/03/18 05:08:18;;;;;;;26.85;16.35;;;8.20;99.90;;;;;;5094238;28;20210;-67
2022/03/18 05:10:44;;;;;;;31.60;19.27;;;8.30;99.90;;;;;;5094250;28;20294;-67
2022/03/18 05:13:13;;;;;;;26.70;18.05;;;8.30;99.90;;;;;;5094145;28;20206;-66
2022/03/18 05:15:41;;;;;;;26.20;17.85;;;8.30;99.90;;;;;;5093844;28;20668;-67
2022/03/18 05:18:08;;;;;;;31.50;19.42;;;8.30;99.90;;;;;;5094289;28;20222;-67
2022/03/18 05:20:35;;;;;;;27.55;18.60;;;8.40;99.90;;;;;;5094439;28;20213;-67
2022/03/18 05:23:02;;;;;;;30.27;20.20;;;8.40;99.90;;;;;;5093864;28;20253;-67
2022/03/18 05:25:28;;;;;;;26.85;17.95;;;8.30;99.90;;;;;;5093838;28;20711;-67
2022/03/18 05:27:55;;;;;;;26.50;18.08;;;8.30;99.90;;;;;;5094064;28;20233;-67
2022/03/18 05:30:23;;;;;;;27.00;17.85;;;8.30;99.90;;;;;;5093981;28;20277;-66
2022/03/18 05:32:50;;;;;;;28.70;18.13;;;8.20;99.90;;;;;;5094051;28;20202;-67
2022/03/18 05:35:18;;;;;;;26.45;18.50;;;8.20;99.90;;;;;;5093700;28;20714;-67
2022/03/18 05:37:45;;;;;;;29.38;18.00;;;8.30;99.90;;;;;;5093742;28;20230;-67
2022/03/18 05:40:14;;;;;;;29.00;19.70;;;8.20;99.90;;;;;;5093783;28;20644;-67
2022/03/18 05:42:41;;;;;;;29.00;18.88;;;8.20;99.90;;;;;;5094012;28;20218;-67
2022/03/18 05:45:09;;;;;;;28.77;18.25;;;8.20;99.90;;;;;;5094158;28;20748;-67
2022/03/18 05:47:37;;;;;;;27.17;17.80;;;8.10;99.90;;;;;;5093611;28;20222;-67
2022/03/18 05:50:06;;;;;;;26.70;18.85;;;8.20;99.90;;;;;;5093793;28;20198;-67
2022/03/18 05:52:33;;;;;;;28.25;17.88;;;8.20;99.90;;;;;;5094171;28;20205;-67
2022/03/18 05:55:00;;;;;;;26.55;17.55;;;8.20;99.90;;;;;;5097988;28;20208;-67
2022/03/18 05:57:27;;;;;;;28.65;19.23;;;8.30;99.90;;;;;;5098311;28;20228;-67
2022/03/18 05:59:54;;;;;;;27.98;18.95;;;8.20;99.90;;;;;;5098098;28;20202;-67
2022/03/18 06:02:21;;;;;;;25.17;17.27;;;8.20;99.90;;;;;;5097671;28;20225;-66
2022/03/18 06:04:50;;;;;;;25.80;18.15;;;8.20;99.90;;;;;;5097834;28;20198;-67
2022/03/18 06:07:18;;;;;;;26.23;18.35;;;8.30;99.90;;;;;;5098403;28;20226;-66
2022/03/18 06:12:38;;;;;;;28.33;19.55;;;8.20;99.90;;;;;;5060863;28;20276;-67
2022/03/18 06:15:06;;;;;;;32.17;19.27;;;8.20;99.90;;;;;;5097111;28;20664;-67
2022/03/18 06:17:33;;;;;;;29.55;19.30;;;8.20;99.90;;;;;;5097684;28;20598;-67
2022/03/18 06:20:01;;;;;;;32.42;20.55;;;8.20;99.90;;;;;;5097615;28;20294;-66
2022/03/18 06:22:28;;;;;;;25.92;19.38;;;8.20;99.90;;;;;;5097626;28;20245;-67
2022/03/18 06:24:55;;;;;;;29.17;19.95;;;8.20;99.90;;;;;;5097145;28;20297;-67
2022/03/18 06:27:21;;;;;;;33.42;20.95;;;8.10;99.90;;;;;;5097119;28;20226;-67
2022/03/18 06:29:48;;;;;;;29.85;20.33;;;8.10;99.90;;;;;;5096870;28;20210;-67
2022/03/18 06:32:15;;;;;;;28.65;20.42;;;8.10;99.90;;;;;;5097171;28;20208;-67
2022/03/18 06:34:42;;;;;;;27.50;19.55;;;8.10;99.90;;;;;;5097048;28;20630;-67
2022/03/18 06:37:10;;;;;;;30.15;19.40;;;8.00;99.90;;;;;;5096968;28;20226;-67
2022/03/18 06:39:37;;;;;;;33.05;20.65;;;8.00;99.90;;;;;;5097774;28;20292;-67
2022/03/18 06:42:04;;;;;;;32.00;21.70;;;8.00;99.90;;;;;;5096896;28;20740;-67
2022/03/18 06:44:31;;;;;;;31.67;19.90;;;7.90;99.90;;;;;;5096726;28;20209;-67
2022/03/18 06:46:59;;;;;;;32.08;20.20;;;8.00;99.90;;;;;;5096932;28;20680;-67
2022/03/18 06:49:26;;;;;;;30.85;21.15;;;8.10;99.90;;;;;;5096842;28;20293;-67
2022/03/18 06:51:53;;;;;;;33.38;21.83;;;8.20;99.90;;;;;;5096815;28;20208;-67
2022/03/18 06:54:21;;;;;;;32.45;21.85;;;8.30;99.90;;;;;;5096609;28;20198;-67
2022/03/18 06:56:48;;;;;;;35.33;21.67;;;8.40;99.90;;;;;;5096916;28;20309;-67
2022/03/18 06:59:14;;;;;;;31.73;22.20;;;8.40;99.90;;;;;;5096830;28;20609;-67
2022/03/18 07:01:41;;;;;;;33.63;21.52;;;8.40;99.90;;;;;;5096293;28;20321;-67
2022/03/18 07:04:08;;;;;;;33.22;20.52;;;8.40;99.90;;;;;;5095774;28;20205;-67
2022/03/18 07:06:35;;;;;;;34.63;22.67;;;8.40;99.90;;;;;;5096530;28;20327;-67
2022/03/18 07:09:02;;;;;;;30.58;21.88;;;8.40;99.90;;;;;;5096179;28;20664;-67
2022/03/18 07:11:30;;;;;;;35.95;22.88;;;8.40;99.90;;;;;;5096533;28;20229;-67
2022/03/18 07:13:57;;;;;;;33.38;22.75;;;8.50;99.90;;;;;;5096228;28;20633;-67
2022/03/18 07:19:08;;;;;;;31.15;20.85;;;8.50;99.90;;;;;;5096635;28;20176;-67
2022/03/18 07:21:35;;;;;;;32.00;21.40;;;8.60;99.90;;;;;;5096113;28;20285;-67
2022/03/18 07:24:02;;;;;;;37.45;24.92;;;8.70;99.90;;;;;;5096215;28;20297;-67
2022/03/18 07:26:30;;;;;;;34.35;24.10;;;8.70;99.90;;;;;;5096074;28;20228;-67
2022/03/18 07:28:57;;;;;;;38.05;24.98;;;8.70;99.90;;;;;;5096250;28;20572;-67
2022/03/18 07:31:24;;;;;;;35.85;23.33;;;8.70;99.90;;;;;;5096416;28;20198;-67
2022/03/18 07:33:52;;;;;;;36.40;23.42;;;8.70;99.90;;;;;;5095814;28;20628;-67
2022/03/18 07:36:19;;;;;;;35.92;23.90;;;8.70;99.90;;;;;;5095997;28;20222;-67
2022/03/18 07:38:46;;;;;;;39.58;24.70;;;8.90;99.90;;;;;;5095766;28;20208;-67
2022/03/18 07:41:13;;;;;;;37.67;25.85;;;8.80;99.90;;;;;;5096114;28;20529;-67
2022/03/18 07:43:41;;;;;;;39.95;26.55;;;8.80;99.90;;;;;;5095692;28;20226;-67
2022/03/18 07:46:08;;;;;;;39.10;24.83;;;8.70;99.90;;;;;;5096115;28;20337;-67
2022/03/18 07:48:39;;;;;;;43.03;26.27;;;8.70;99.90;;;;;;5096437;28;20208;-67
2022/03/18 07:51:06;;;;;;;42.97;26.48;;;8.80;99.90;;;;;;5096192;28;20309;-67
2022/03/18 07:53:33;;;;;;;43.72;27.63;;;9.00;99.90;;;;;;5095378;28;20204;-68
2022/03/18 07:56:00;;;;;;;42.60;28.00;;;8.90;99.90;;;;;;5095702;28;20210;-67
2022/03/18 07:58:27;;;;;;;43.60;28.08;;;9.00;99.90;;;;;;5095798;28;20212;-67
2022/03/18 08:00:55;;;;;;;40.38;27.42;;;9.10;99.90;;;;;;5095457;28;20293;-67
2022/03/18 08:03:21;;;;;;;40.53;26.63;;;9.10;99.90;;;;;;5094975;28;20222;-67
2022/03/18 08:05:48;;;;;;;42.97;27.45;;;9.20;99.90;;;;;;5095224;28;20655;-67
2022/03/18 08:08:15;;;;;;;38.50;29.10;;;9.20;99.90;;;;;;5095693;28;20198;-67
2022/03/18 08:10:42;;;;;;;45.90;28.73;;;9.10;99.90;;;;;;5094942;28;20762;-67
2022/03/18 08:13:09;;;;;;;42.08;28.20;;;9.10;99.90;;;;;;5095368;28;20202;-67
2022/03/18 08:15:36;;;;;;;43.88;30.33;;;9.20;99.90;;;;;;5095556;28;20552;-67
2022/03/18 08:18:04;;;;;;;43.38;28.85;;;9.40;99.90;;;;;;5095093;28;20312;-68
2022/03/18 08:20:39;;;;;;;44.08;28.42;;;9.30;99.90;;;;;;5095083;28;20202;-68
2022/03/18 08:23:06;;;;;;;44.47;30.02;;;9.40;99.90;;;;;;5094996;28;20596;-67
2022/03/18 08:25:32;;;;;;;43.63;28.92;;;9.40;99.90;;;;;;5095537;28;20202;-67
2022/03/18 08:27:59;;;;;;;45.60;29.15;;;9.40;99.90;;;;;;5094633;28;20234;-67
2022/03/18 08:30:26;;;;;;;42.55;28.25;;;9.40;99.90;;;;;;5095150;28;20297;-67
2022/03/18 08:32:53;;;;;;;41.83;29.27;;;9.50;99.90;;;;;;5095443;28;20225;-68
2022/03/18 08:35:21;;;;;;;42.83;28.52;;;9.60;99.90;;;;;;5094894;28;20574;-67
2022/03/18 08:37:57;;;;;;;43.30;28.98;;;9.60;99.90;;;;;;5094794;28;20226;-68
2022/03/18 08:40:26;;;;;;;40.33;27.67;;;9.60;99.90;;;;;;5094765;28;20559;-68
2022/03/18 08:42:53;;;;;;;40.47;27.58;;;9.70;99.90;;;;;;5094572;28;20226;-67
2022/03/18 08:45:20;;;;;;;39.42;26.63;;;9.80;99.90;;;;;;5094256;28;20210;-68
2022/03/18 08:47:47;;;;;;;39.15;29.10;;;10.00;99.90;;;;;;5094598;28;20309;-67
2022/03/18 08:50:15;;;;;;;42.17;26.00;;;9.80;99.90;;;;;;5095085;28;20204;-68
2022/03/18 08:52:45;;;;;;;37.33;26.50;;;9.70;99.90;;;;;;5094557;28;20234;-68
2022/03/18 08:55:13;;;;;;;40.47;27.00;;;9.90;99.90;;;;;;5094278;28;20255;-67
2022/03/18 08:57:41;;;;;;;38.00;26.90;;;9.80;99.90;;;;;;5094200;28;20222;-68
2022/03/18 09:00:10;;;;;;;38.55;25.80;;;9.90;99.90;;;;;;5094343;28;20293;-67
2022/03/18 09:02:38;;;;;;;38.22;25.73;;;9.90;99.90;;;;;;5094366;28;20226;-67
2022/03/18 09:05:07;;;;;;;37.55;26.40;;;9.90;99.90;;;;;;5094208;28;20567;-67
2022/03/18 09:07:34;;;;;;;37.15;27.80;;;10.00;99.90;;;;;;5093993;28;20218;-68
2022/03/18 09:10:03;;;;;;;39.08;25.73;;;10.10;99.90;;;;;;5094272;28;20201;-68
2022/03/18 09:12:30;;;;;;;37.33;25.05;;;10.00;99.90;;;;;;5093887;28;20198;-68
2022/03/18 09:14:58;;;;;;;39.10;27.15;;;10.10;99.90;;;;;;5094208;28;20296;-68
2022/03/18 09:17:26;;;;;;;36.67;24.83;;;10.10;99.90;;;;;;5094560;28;20225;-68
2022/03/18 09:19:53;;;;;;;34.95;23.55;;;10.00;99.90;;;;;;5094092;28;20208;-68
2022/03/18 09:22:20;;;;;;;32.50;22.35;;;10.00;99.90;;;;;;5094357;28;20226;-67
2022/03/18 09:24:47;;;;;;;33.15;22.42;;;9.80;99.90;;;;;;5093909;28;20230;-68
2022/03/18 09:27:16;;;;;;;33.88;22.73;;;9.80;99.90;;;;;;5093519;28;20225;-67
2022/03/18 09:29:46;;;;;;;34.22;23.60;;;9.80;99.90;;;;;;5093804;28;20210;-67
2022/03/18 09:32:13;;;;;;;34.53;23.55;;;10.00;99.90;;;;;;5094130;28;20263;-68
2022/03/18 09:34:40;;;;;;;32.53;22.70;;;10.00;99.90;;;;;;5093586;28;20284;-67
2022/03/18 09:37:06;;;;;;;35.40;23.90;;;10.20;99.90;;;;;;5093777;28;20244;-68
2022/03/18 09:39:33;;;;;;;31.77;23.27;;;10.30;99.90;;;;;;5093610;28;20296;-68
2022/03/18 09:42:00;;;;;;;36.30;23.65;;;10.40;99.90;;;;;;5093757;28;20564;-68
2022/03/18 09:44:36;;;;;;;32.97;21.65;;;10.00;99.90;;;;;;5093528;28;20682;-68
2022/03/18 09:47:04;;;;;;;32.95;22.15;;;10.10;99.90;;;;;;5093795;28;20221;-68
2022/03/18 09:49:33;;;;;;;32.25;23.35;;;10.10;99.90;;;;;;5093416;28;20208;-68
2022/03/18 09:52:00;;;;;;;33.47;26.02;;;10.30;99.90;;;;;;5093747;28;20231;-67
2022/03/18 09:54:28;;;;;;;34.05;24.77;;;10.30;99.90;;;;;;5093825;28;20292;-68
2022/03/18 09:56:55;;;;;;;35.47;23.08;;;10.10;99.90;;;;;;5093311;28;20218;-68
2022/03/18 09:59:23;;;;;;;32.97;23.15;;;10.20;99.90;;;;;;5093636;28;20206;-68
2022/03/18 10:02:11;;;;;;;34.80;22.48;;;10.30;99.90;;;;;;5093528;28;20206;-68
2022/03/18 10:04:52;;;;;;;33.08;26.25;;;10.60;99.90;;;;;;5093286;28;20206;-68
2022/03/18 10:07:19;;;;;;;34.33;24.02;;;10.30;99.90;;;;;;5094236;28;20728;-68
2022/03/18 10:09:45;;;;;;;33.08;22.48;;;10.20;99.90;;;;;;5094145;28;20297;-68
2022/03/18 10:12:28;;;;;;;34.63;24.60;;;10.60;99.90;;;;;;5093173;28;20297;-68
2022/03/18 10:15:14;;;;;;;34.08;24.45;;;10.70;99.90;;;;;;5093502;28;20216;-68
2022/03/18 10:17:47;;;;;;;32.42;22.42;;;10.90;99.90;;;;;;5093411;28;20230;-68
2022/03/18 10:20:32;;;;;;;34.38;24.27;;;11.10;99.90;;;;;;5093501;28;20186;-68
2022/03/18 10:23:05;;;;;;;35.10;21.77;;;11.10;99.90;;;;;;5093202;28;20240;-67
2022/03/18 10:25:41;;;;;;;48.45;24.25;;;11.10;99.90;;;;;;5093537;28;20210;-68
2022/03/18 10:28:10;;;;;;;36.97;22.58;;;11.40;99.90;;;;;;5093138;28;20265;-68
2022/03/18 10:30:37;;;;;;;33.60;27.10;;;11.40;99.90;;;;;;5093727;28;20304;-68
2022/03/18 10:33:06;;;;;;;35.95;23.95;;;11.60;99.90;;;;;;5093165;28;20194;-68
2022/03/18 10:38:35;;;;;;;30.88;22.80;;;11.50;99.90;;;;;;5093379;28;20181;-68
2022/03/18 10:41:07;;;;;;;35.63;25.35;;;11.60;99.90;;;;;;5096258;28;20643;-68
2022/03/18 10:43:52;;;;;;;34.17;24.77;;;11.90;99.90;;;;;;5096883;28;20206;-68
2022/03/18 10:46:20;;;;;;;36.70;24.52;;;12.30;99.90;;;;;;5096788;28;20222;-68
2022/03/18 10:49:03;;;;;;;34.25;24.63;;;12.50;99.90;;;;;;5097352;28;20544;-68
2022/03/18 10:51:31;;;;;;;33.97;24.17;;;12.40;99.90;;;;;;5096933;28;20197;-69
2022/03/18 10:53:58;;;;;;;34.03;23.65;;;12.50;99.90;;;;;;5096781;28;20209;-69
2022/03/18 10:56:25;;;;;;;33.58;23.52;;;12.70;99.90;;;;;;5097023;28;20218;-68
2022/03/18 10:58:52;;;;;;;32.17;24.10;;;13.10;99.90;;;;;;5097212;28;20202;-67
2022/03/18 11:01:20;;;;;;;36.20;25.67;;;13.50;99.90;;;;;;5082011;28;20207;-65
2022/03/18 11:03:47;;;;;;;31.88;24.02;;;13.30;99.90;;;;;;5095480;28;20234;-67
2022/03/18 11:06:17;;;;;;;32.25;24.00;;;13.50;99.90;;;;;;5095309;28;20314;-67
2022/03/18 11:08:46;;;;;;;32.72;25.15;;;13.60;99.50;;;;;;5095562;28;20554;-66
2022/03/18 11:11:18;;;;;;;31.48;24.88;;;13.70;98.70;;;;;;5095402;28;20204;-65
2022/03/18 11:13:50;;;;;;;30.67;24.33;;;13.20;99.60;;;;;;5094994;28;20277;-66
2022/03/18 11:16:22;;;;;;;33.65;25.25;;;13.10;99.90;;;;;;5095264;28;20308;-66
2022/03/18 11:18:49;;;;;;;34.28;24.52;;;13.00;99.90;;;;;;5095281;28;20206;-65
2022/03/18 11:21:21;;;;;;;33.40;25.55;;;13.00;99.90;;;;;;5095062;28;20198;-65
2022/03/18 11:23:48;;;;;;;32.63;25.83;;;12.80;99.90;;;;;;5094930;28;20217;-67
2022/03/18 11:26:17;;;;;;;33.20;25.60;;;12.60;99.90;;;;;;5095074;28;20699;-67
2022/03/18 11:28:44;;;;;;;37.45;25.80;;;12.50;99.90;;;;;;5095082;28;20581;-68
2022/03/18 11:31:17;;;;;;;37.08;26.40;;;12.50;99.90;;;;;;5095295;28;20202;-65
2022/03/18 11:34:08;;;;;;;31.63;24.48;;;12.80;99.90;;;;;;5094690;28;20619;-68
2022/03/18 11:36:38;;;;;;;33.22;24.70;;;13.00;99.90;;;;;;5095066;28;20253;-68
2022/03/18 11:39:09;;;;;;;32.55;24.98;;;12.90;99.90;;;;;;5095068;28;20667;-68
2022/03/18 11:41:55;;;;;;;33.33;24.30;;;12.70;99.90;;;;;;5094698;28;20699;-66
2022/03/18 11:44:42;;;;;;;31.45;22.85;;;12.70;99.90;;;;;;5094526;28;20225;-66
2022/03/18 11:47:34;;;;;;;35.83;25.42;;;12.80;99.90;;;;;;5094552;28;20283;-66
2022/03/18 11:50:05;;;;;;;34.22;26.30;;;13.00;99.90;;;;;;5079789;28;20295;-67
2022/03/18 11:52:34;;;;;;;33.05;24.27;;;12.90;99.90;;;;;;5093963;28;20752;-70
2022/03/18 11:55:09;;;;;;;35.17;27.02;;;12.60;99.90;;;;;;5094306;28;20198;-69
2022/03/18 11:57:43;;;;;;;32.78;24.50;;;12.50;99.90;;;;;;5094379;28;20256;-67
2022/03/18 12:00:43;;;;;;;33.45;23.52;;;12.70;99.90;;;;;;5094221;28;20216;-67
2022/03/18 12:03:21;;;;;;;33.00;24.52;;;13.10;99.90;;;;;;5093770;28;20214;-67
2022/03/18 12:05:56;;;;;;;31.30;25.10;;;13.30;99.90;;;;;;5094106;28;20241;-67
2022/03/18 12:09:02;;;;;;;34.97;26.02;;;13.40;99.90;;;;;;5093818;28;20696;-67
2022/03/18 12:11:37;;;;;;;33.00;24.45;;;13.20;99.90;;;;;;5094065;28;20272;-68
2022/03/18 12:14:10;;;;;;;36.53;25.40;;;12.80;99.90;;;;;;5093686;28;20197;-69
2022/03/18 12:16:37;;;;;;;34.45;25.55;;;12.70;99.90;;;;;;5093719;28;20222;-66
2022/03/18 12:19:11;;;;;;;31.70;25.85;;;12.90;99.90;;;;;;5093574;28;20202;-67
2022/03/18 12:21:43;;;;;;;35.47;26.17;;;13.00;99.90;;;;;;5094039;28;20201;-69
2022/03/18 12:24:12;;;;;;;35.05;27.55;;;12.60;99.90;;;;;;5093779;28;20226;-69
2022/03/18 12:26:40;;;;;;;36.97;25.17;;;12.60;99.90;;;;;;5093472;28;20226;-69
2022/03/18 12:29:08;;;;;;;36.38;27.00;;;12.70;99.90;;;;;;5093605;28;20214;-69
2022/03/18 12:31:35;;;;;;;37.20;27.17;;;12.80;99.90;;;;;;5093664;28;20297;-69
2022/03/18 12:34:07;;;;;;;32.30;26.35;;;12.90;99.90;;;;;;5093363;28;20251;-69
2022/03/18 12:36:35;;;;;;;34.30;27.25;;;12.70;99.90;;;;;;5093738;28;20225;-70
2022/03/18 12:39:06;;;;;;;35.22;27.27;;;12.50;99.90;;;;;;5093354;28;20678;-69
2022/03/18 12:41:35;;;;;;;37.22;27.42;;;12.30;99.90;;;;;;5093393;28;20218;-69
2022/03/18 12:44:02;;;;;;;38.35;29.05;;;12.20;99.90;;;;;;5093119;28;20271;-70
2022/03/18 12:46:29;;;;;;;35.97;28.88;;;12.10;99.90;;;;;;5093080;28;20225;-70
2022/03/18 12:48:56;;;;;;;36.53;27.52;;;12.00;99.90;;;;;;5093588;28;20208;-70
2022/03/18 12:51:24;;;;;;;35.38;26.38;;;12.00;99.90;;;;;;5093038;28;20201;-68
2022/03/18 12:53:51;;;;;;;38.15;27.90;;;12.30;99.90;;;;;;5093015;28;20204;-69
2022/03/18 12:56:19;;;;;;;34.25;28.38;;;12.40;99.90;;;;;;5093020;28;20241;-69
2022/03/18 12:58:48;;;;;;;32.92;26.20;;;12.40;99.90;;;;;;5093131;28;20210;-69